sensor_id;sensor_type;location;lat;lon;timestamp;temperature;humidity
13354;DHT22;6746;50.892;4.064;2024-02-21T00:00:38;9.80;99.90
13354;DHT22;6746;50.892;4.064;2024-02-21T00:03:17;9.80;99.90
13354;DHT22;6746;50.892;4.064;2024-02-21T00:06:05;9.80;99.90
13354;DHT22;6746;50.892;4.064;2024-02-21T00:08:43;9.80;99.90
13354;DHT22;6746;50.892;4.064;2024-02-21T00:11:21;9.80;99.90
13354;DHT22;6746;50.892;4.064;2024-02-21T00:14:09;9.80;99.90
13354;DHT22;6746;50.892;4.064;2024-02-21T00:16:50;9.80;99.90
13354;DHT22;6746;50.892;4.064;2024-02-21T00:19:28;9.80;99.90
13354;DHT22;6746;50.892;4.064;2024-02-21T00:22:09;9.80;99.90
13354;DHT22;6746;50.892;4.064;2024-02-21T00:24:47;9.80;99.90
13354;DHT22;6746;50.892;4.064;2024-02-21T00:27:25;9.80;99.90
13354;DHT22;6746;50.892;4.064;2024-02-21T00:30:04;9.70;99.90
13354;DHT22;6746;50.892;4.064;2024-02-21T00:32:52;9.80;99.90
13354;DHT22;6746;50.892;4.064;2024-02-21T00:35:30;9.70;99.90
13354;DHT22;6746;50.892;4.064;2024-02-21T00:38:08;9.70;99.90
13354;DHT22;6746;50.892;4.064;2024-02-21T00:40:49;9.60;99.90
13354;DHT22;6746;50.892;4.064;2024-02-21T00:43:27;9.60;99.90
13354;DHT22;6746;50.892;4.064;2024-02-21T00:46:08;9.50;99.90
13354;DHT22;6746;50.892;4.064;2024-02-21T00:48:47;9.50;99.90
13354;DHT22;6746;50.892;4.064;2024-02-21T00:51:25;9.60;99.90
13354;DHT22;6746;50.892;4.064;2024-02-21T00:54:03;9.60;99.90
13354;DHT22;6746;50.892;4.064;2024-02-21T00:56:51;9.60;99.90
13354;DHT22;6746;50.892;4.064;2024-02-21T00:59:29;9.60;99.90
13354;DHT22;6746;50.892;4.064;2024-02-21T01:02:08;9.50;99.90
13354;DHT22;6746;50.892;4.064;2024-02-21T01:04:49;9.50;99.90
13354;DHT22;6746;50.892;4.064;2024-02-21T01:07:27;9.50;99.90
13354;DHT22;6746;50.892;4.064;2024-02-21T01:10:13;9.40;99.90
13354;DHT22;6746;50.892;4.064;2024-02-21T01:12:51;9.30;99.90
13354;DHT22;6746;50.892;4.064;2024-02-21T01:15:39;9.20;99.90
13354;DHT22;6746;50.892;4.064;2024-02-21T01:18:18;9.20;99.90
13354;DHT22;6746;50.892;4.064;2024-02-21T01:20:56;9.10;99.90
13354;DHT22;6746;50.892;4.064;2024-02-21T01:23:34;9.00;99.90
13354;DHT22;6746;50.892;4.064;2024-02-21T01:26:12;8.90;99.90
13354;DHT22;6746;50.892;4.064;2024-02-21T01:29:00;8.90;99.90
13354;DHT22;6746;50.892;4.064;2024-02-21T01:31:48;8.80;99.90
13354;DHT22;6746;50.892;4.064;2024-02-21T01:34:36;8.80;99.90
13354;DHT22;6746;50.892;4.064;2024-02-21T01:37:25;8.80;99.90
13354;DHT22;6746;50.892;4.064;2024-02-21T01:40:14;8.80;99.90
13354;DHT22;6746;50.892;4.064;2024-02-21T01:43:01;8.80;99.90
13354;DHT22;6746;50.892;4.064;2024-02-21T01:45:43;8.80;99.90
13354;DHT22;6746;50.892;4.064;2024-02-21T01:48:21;8.80;99.90
13354;DHT22;6746;50.892;4.064;2024-02-21T01:51:04;8.80;99.90
13354;DHT22;6746;50.892;4.064;2024-02-21T01:53:42;8.70;99.90
13354;DHT22;6746;50.892;4.064;2024-02-21T01:56:20;8.70;99.90
13354;DHT22;6746;50.892;4.064;2024-02-21T01:58:58;8.70;99.90
13354;DHT22;6746;50.892;4.064;2024-02-21T02:01:42;8.70;99.90
13354;DHT22;6746;50.892;4.064;2024-02-21T02:04:20;8.70;99.90
13354;DHT22;6746;50.892;4.064;2024-02-21T02:07:02;8.60;99.90
13354;DHT22;6746;50.892;4.064;2024-02-21T02:09:39;8.60;99.90
13354;DHT22;6746;50.892;4.064;2024-02-21T02:12:17;8.60;99.90
13354;DHT22;6746;50.892;4.064;2024-02-21T02:14:59;8.60;99.90
13354;DHT22;6746;50.892;4.064;2024-02-21T02:17:46;8.60;99.90
13354;DHT22;6746;50.892;4.064;2024-02-21T02:20:24;8.70;99.90
13354;DHT22;6746;50.892;4.064;2024-02-21T02:25:57;8.70;99.90
13354;DHT22;6746;50.892;4.064;2024-02-21T02:28:36;8.60;99.90
13354;DHT22;6746;50.892;4.064;2024-02-21T02:31:17;8.60;99.90
13354;DHT22;6746;50.892;4.064;2024-02-21T02:33:55;8.60;99.90
13354;DHT22;6746;50.892;4.064;2024-02-21T02:36:38;8.60;99.90
13354;DHT22;6746;50.892;4.064;2024-02-21T02:39:16;8.50;99.90
13354;DHT22;6746;50.892;4.064;2024-02-21T02:41:59;8.60;99.90
13354;DHT22;6746;50.892;4.064;2024-02-21T02:44:37;8.70;99.90
13354;DHT22;6746;50.892;4.064;2024-02-21T02:47:25;8.70;99.90
13354;DHT22;6746;50.892;4.064;2024-02-21T02:50:09;8.70;99.90
13354;DHT22;6746;50.892;4.064;2024-02-21T02:52:47;8.70;99.90
13354;DHT22;6746;50.892;4.064;2024-02-21T02:55:28;8.80;99.90
13354;DHT22;6746;50.892;4.064;2024-02-21T02:58:07;8.80;99.90
13354;DHT22;6746;50.892;4.064;2024-02-21T03:00:50;8.80;99.90
13354;DHT22;6746;50.892;4.064;2024-02-21T03:03:28;8.80;99.90
13354;DHT22;6746;50.892;4.064;2024-02-21T03:06:06;8.80;99.90
13354;DHT22;6746;50.892;4.064;2024-02-21T03:08:44;8.70;99.90
13354;DHT22;6746;50.892;4.064;2024-02-21T03:11:32;8.70;99.90
13354;DHT22;6746;50.892;4.064;2024-02-21T03:14:11;8.70;99.90
13354;DHT22;6746;50.892;4.064;2024-02-21T03:16:51;8.70;99.90
13354;DHT22;6746;50.892;4.064;2024-02-21T03:19:27;8.80;99.90
13354;DHT22;6746;50.892;4.064;2024-02-21T03:22:05;8.80;99.90
13354;DHT22;6746;50.892;4.064;2024-02-21T03:24:46;8.90;99.90
13354;DHT22;6746;50.892;4.064;2024-02-21T03:27:25;8.90;99.90
13354;DHT22;6746;50.892;4.064;2024-02-21T03:30:05;8.90;99.90
13354;DHT22;6746;50.892;4.064;2024-02-21T03:32:43;8.90;99.90
13354;DHT22;6746;50.892;4.064;2024-02-21T03:35:22;8.90;99.90
13354;DHT22;6746;50.892;4.064;2024-02-21T03:38:00;9.00;99.90
13354;DHT22;6746;50.892;4.064;2024-02-21T03:40:38;9.00;99.90
13354;DHT22;6746;50.892;4.064;2024-02-21T03:43:16;9.00;99.90
13354;DHT22;6746;50.892;4.064;2024-02-21T03:45:55;9.00;99.90
13354;DHT22;6746;50.892;4.064;2024-02-21T03:48:33;8.90;99.90
13354;DHT22;6746;50.892;4.064;2024-02-21T03:51:21;8.90;99.90
13354;DHT22;6746;50.892;4.064;2024-02-21T03:53:59;8.90;99.90
13354;DHT22;6746;50.892;4.064;2024-02-21T03:56:38;8.90;99.90
13354;DHT22;6746;50.892;4.064;2024-02-21T03:59:25;8.90;99.90
13354;DHT22;6746;50.892;4.064;2024-02-21T04:02:13;8.90;99.90
13354;DHT22;6746;50.892;4.064;2024-02-21T04:05:01;8.90;99.90
13354;DHT22;6746;50.892;4.064;2024-02-21T04:07:40;8.90;99.90
13354;DHT22;6746;50.892;4.064;2024-02-21T04:10:18;8.90;99.90
13354;DHT22;6746;50.892;4.064;2024-02-21T04:12:59;9.00;99.90
13354;DHT22;6746;50.892;4.064;2024-02-21T04:15:37;8.90;99.90
13354;DHT22;6746;50.892;4.064;2024-02-21T04:18:15;8.90;99.90
13354;DHT22;6746;50.892;4.064;2024-02-21T04:20:53;8.90;99.90
13354;DHT22;6746;50.892;4.064;2024-02-21T04:23:36;8.90;99.90
13354;DHT22;6746;50.892;4.064;2024-02-21T04:26:15;8.90;99.90
13354;DHT22;6746;50.892;4.064;2024-02-21T04:28:58;9.00;99.90
13354;DHT22;6746;50.892;4.064;2024-02-21T04:31:36;8.90;99.90
13354;DHT22;6746;50.892;4.064;2024-02-21T04:34:22;8.90;99.90
13354;DHT22;6746;50.892;4.064;2024-02-21T04:37:01;8.90;99.90
13354;DHT22;6746;50.892;4.064;2024-02-21T04:39:44;8.90;99.90
13354;DHT22;6746;50.892;4.064;2024-02-21T04:42:22;8.90;99.90
13354;DHT22;6746;50.892;4.064;2024-02-21T04:45:10;8.90;99.90
13354;DHT22;6746;50.892;4.064;2024-02-21T04:47:57;8.90;99.90
13354;DHT22;6746;50.892;4.064;2024-02-21T04:50:35;9.00;99.90
13354;DHT22;6746;50.892;4.064;2024-02-21T04:53:19;8.90;99.90
13354;DHT22;6746;50.892;4.064;2024-02-21T04:55:57;8.90;99.90
13354;DHT22;6746;50.892;4.064;2024-02-21T04:58:38;9.00;99.90
13354;DHT22;6746;50.892;4.064;2024-02-21T05:01:16;8.90;99.90
13354;DHT22;6746;50.892;4.064;2024-02-21T05:03:56;8.90;99.90
13354;DHT22;6746;50.892;4.064;2024-02-21T05:06:41;8.90;99.90
13354;DHT22;6746;50.892;4.064;2024-02-21T05:09:18;8.90;99.90
13354;DHT22;6746;50.892;4.064;2024-02-21T05:11:56;8.90;99.90
13354;DHT22;6746;50.892;4.064;2024-02-21T05:14:43;8.90;99.90
13354;DHT22;6746;50.892;4.064;2024-02-21T05:17:21;8.90;99.90
13354;DHT22;6746;50.892;4.064;2024-02-21T05:20:02;8.90;99.90
13354;DHT22;6746;50.892;4.064;2024-02-21T05:22:40;9.00;99.90
13354;DHT22;6746;50.892;4.064;2024-02-21T05:25:21;9.00;99.90
13354;DHT22;6746;50.892;4.064;2024-02-21T05:27:59;9.00;99.90
13354;DHT22;6746;50.892;4.064;2024-02-21T05:30:37;9.00;99.90
13354;DHT22;6746;50.892;4.064;2024-02-21T05:33:16;9.00;99.90
13354;DHT22;6746;50.892;4.064;2024-02-21T05:35:54;9.00;99.90
13354;DHT22;6746;50.892;4.064;2024-02-21T05:38:32;9.00;99.90
13354;DHT22;6746;50.892;4.064;2024-02-21T05:41:16;9.00;99.90
13354;DHT22;6746;50.892;4.064;2024-02-21T05:43:54;9.00;99.90
13354;DHT22;6746;50.892;4.064;2024-02-21T05:46:41;9.00;99.90
13354;DHT22;6746;50.892;4.064;2024-02-21T05:49:20;9.00;99.90
13354;DHT22;6746;50.892;4.064;2024-02-21T05:51:58;9.00;99.90
13354;DHT22;6746;50.892;4.064;2024-02-21T05:54:46;9.00;99.90
13354;DHT22;6746;50.892;4.064;2024-02-21T05:57:24;9.00;99.90
13354;DHT22;6746;50.892;4.064;2024-02-21T06:00:05;9.00;99.90
13354;DHT22;6746;50.892;4.064;2024-02-21T06:02:43;9.00;99.90
13354;DHT22;6746;50.892;4.064;2024-02-21T06:05:21;9.00;99.90
13354;DHT22;6746;50.892;4.064;2024-02-21T06:08:03;9.10;99.90
13354;DHT22;6746;50.892;4.064;2024-02-21T06:10:41;9.10;99.90
13354;DHT22;6746;50.892;4.064;2024-02-21T06:13:19;9.10;99.90
13354;DHT22;6746;50.892;4.064;2024-02-21T06:16:04;9.10;99.90
13354;DHT22;6746;50.892;4.064;2024-02-21T06:18:44;9.10;99.90
13354;DHT22;6746;50.892;4.064;2024-02-21T06:21:28;9.20;99.90
13354;DHT22;6746;50.892;4.064;2024-02-21T06:24:12;9.20;99.90
13354;DHT22;6746;50.892;4.064;2024-02-21T06:27:00;9.20;99.90
13354;DHT22;6746;50.892;4.064;2024-02-21T06:29:38;9.20;99.90
13354;DHT22;6746;50.892;4.064;2024-02-21T06:32:17;9.20;99.90
13354;DHT22;6746;50.892;4.064;2024-02-21T06:35:00;9.20;99.90
13354;DHT22;6746;50.892;4.064;2024-02-21T06:37:38;9.20;99.90
13354;DHT22;6746;50.892;4.064;2024-02-21T06:40:22;9.20;99.90
13354;DHT22;6746;50.892;4.064;2024-02-21T06:42:59;9.20;99.90
13354;DHT22;6746;50.892;4.064;2024-02-21T06:45:38;9.20;99.90
13354;DHT22;6746;50.892;4.064;2024-02-21T06:48:16;9.20;99.90
13354;DHT22;6746;50.892;4.064;2024-02-21T06:50:56;9.20;99.90
13354;DHT22;6746;50.892;4.064;2024-02-21T06:53:35;9.20;99.90
13354;DHT22;6746;50.892;4.064;2024-02-21T06:56:13;9.20;99.90
13354;DHT22;6746;50.892;4.064;2024-02-21T06:58:51;9.20;99.90
13354;DHT22;6746;50.892;4.064;2024-02-21T07:01:29;9.20;99.90
13354;DHT22;6746;50.892;4.064;2024-02-21T07:04:04;9.20;99.90
13354;DHT22;6746;50.892;4.064;2024-02-21T07:06:52;9.20;99.90
13354;DHT22;6746;50.892;4.064;2024-02-21T07:09:30;9.30;99.90
13354;DHT22;6746;50.892;4.064;2024-02-21T07:12:08;9.30;99.90
13354;DHT22;6746;50.892;4.064;2024-02-21T07:14:46;9.30;99.90
13354;DHT22;6746;50.892;4.064;2024-02-21T07:17:17;9.30;99.90
13354;DHT22;6746;50.892;4.064;2024-02-21T07:19:46;9.30;99.90
13354;DHT22;6746;50.892;4.064;2024-02-21T07:22:20;9.40;99.90
13354;DHT22;6746;50.892;4.064;2024-02-21T07:24:57;9.30;99.90
13354;DHT22;6746;50.892;4.064;2024-02-21T07:27:26;9.30;99.90
13354;DHT22;6746;50.892;4.064;2024-02-21T07:29:58;9.40;99.90
13354;DHT22;6746;50.892;4.064;2024-02-21T07:32:29;9.40;99.90
13354;DHT22;6746;50.892;4.064;2024-02-21T07:34:58;9.30;99.90
13354;DHT22;6746;50.892;4.064;2024-02-21T07:37:27;9.30;99.90
13354;DHT22;6746;50.892;4.064;2024-02-21T07:40:06;9.30;99.90
13354;DHT22;6746;50.892;4.064;2024-02-21T07:42:34;9.30;99.90
13354;DHT22;6746;50.892;4.064;2024-02-21T07:45:03;9.30;99.90
13354;DHT22;6746;50.892;4.064;2024-02-21T07:47:32;9.30;99.90
13354;DHT22;6746;50.892;4.064;2024-02-21T07:50:02;9.30;99.90
13354;DHT22;6746;50.892;4.064;2024-02-21T07:52:30;9.30;99.90
13354;DHT22;6746;50.892;4.064;2024-02-21T07:55:00;9.30;99.90
13354;DHT22;6746;50.892;4.064;2024-02-21T07:57:38;9.30;99.90
13354;DHT22;6746;50.892;4.064;2024-02-21T08:00:10;9.30;99.90
13354;DHT22;6746;50.892;4.064;2024-02-21T08:02:38;9.30;99.90
13354;DHT22;6746;50.892;4.064;2024-02-21T08:05:07;9.20;99.90
13354;DHT22;6746;50.892;4.064;2024-02-21T08:07:38;9.30;99.90
13354;DHT22;6746;50.892;4.064;2024-02-21T08:10:07;9.30;99.90
13354;DHT22;6746;50.892;4.064;2024-02-21T08:12:36;9.30;99.90
13354;DHT22;6746;50.892;4.064;2024-02-21T08:15:10;9.30;99.90
13354;DHT22;6746;50.892;4.064;2024-02-21T08:17:39;9.40;99.90
13354;DHT22;6746;50.892;4.064;2024-02-21T08:20:11;9.40;99.90
13354;DHT22;6746;50.892;4.064;2024-02-21T08:22:40;9.40;99.90
13354;DHT22;6746;50.892;4.064;2024-02-21T08:25:14;9.40;99.90
13354;DHT22;6746;50.892;4.064;2024-02-21T08:27:43;9.40;99.90
13354;DHT22;6746;50.892;4.064;2024-02-21T08:30:15;9.40;99.90
13354;DHT22;6746;50.892;4.064;2024-02-21T08:32:54;9.50;99.90
13354;DHT22;6746;50.892;4.064;2024-02-21T08:35:27;9.50;99.90
13354;DHT22;6746;50.892;4.064;2024-02-21T08:37:56;9.50;99.90
13354;DHT22;6746;50.892;4.064;2024-02-21T08:40:34;9.60;99.90
13354;DHT22;6746;50.892;4.064;2024-02-21T08:43:13;9.60;99.90
13354;DHT22;6746;50.892;4.064;2024-02-21T08:45:42;9.60;99.90
13354;DHT22;6746;50.892;4.064;2024-02-21T08:48:20;9.70;99.90
13354;DHT22;6746;50.892;4.064;2024-02-21T08:50:58;9.70;99.90
13354;DHT22;6746;50.892;4.064;2024-02-21T08:53:45;9.70;99.90
13354;DHT22;6746;50.892;4.064;2024-02-21T08:56:17;9.60;99.90
13354;DHT22;6746;50.892;4.064;2024-02-21T08:58:51;9.60;99.90
13354;DHT22;6746;50.892;4.064;2024-02-21T09:01:20;9.60;99.90
13354;DHT22;6746;50.892;4.064;2024-02-21T09:03:59;9.60;99.90
13354;DHT22;6746;50.892;4.064;2024-02-21T09:06:31;9.70;99.90
13354;DHT22;6746;50.892;4.064;2024-02-21T09:09:00;9.70;99.90
13354;DHT22;6746;50.892;4.064;2024-02-21T09:11:34;9.70;99.90
13354;DHT22;6746;50.892;4.064;2024-02-21T09:14:05;9.70;99.90
13354;DHT22;6746;50.892;4.064;2024-02-21T09:16:44;9.70;99.90
13354;DHT22;6746;50.892;4.064;2024-02-21T09:19:18;9.70;99.90
13354;DHT22;6746;50.892;4.064;2024-02-21T09:21:49;9.80;99.90
13354;DHT22;6746;50.892;4.064;2024-02-21T09:24:27;9.80;99.90
13354;DHT22;6746;50.892;4.064;2024-02-21T09:27:05;9.90;99.90
13354;DHT22;6746;50.892;4.064;2024-02-21T09:29:43;9.90;99.90
13354;DHT22;6746;50.892;4.064;2024-02-21T09:32:22;9.90;99.90
13354;DHT22;6746;50.892;4.064;2024-02-21T09:35:10;9.90;99.90
13354;DHT22;6746;50.892;4.064;2024-02-21T09:37:48;10.00;99.90
13354;DHT22;6746;50.892;4.064;2024-02-21T09:40:26;10.10;99.90
13354;DHT22;6746;50.892;4.064;2024-02-21T09:43:04;10.10;99.90
13354;DHT22;6746;50.892;4.064;2024-02-21T09:45:42;10.20;99.90
13354;DHT22;6746;50.892;4.064;2024-02-21T09:48:30;10.20;99.90
13354;DHT22;6746;50.892;4.064;2024-02-21T09:51:07;10.20;99.90
13354;DHT22;6746;50.892;4.064;2024-02-21T09:53:45;10.30;99.90
13354;DHT22;6746;50.892;4.064;2024-02-21T09:56:13;10.30;99.90
13354;DHT22;6746;50.892;4.064;2024-02-21T09:58:42;10.30;99.90
13354;DHT22;6746;50.892;4.064;2024-02-21T10:01:20;10.40;99.90
13354;DHT22;6746;50.892;4.064;2024-02-21T10:03:59;10.50;99.90
13354;DHT22;6746;50.892;4.064;2024-02-21T10:06:37;10.60;99.90
13354;DHT22;6746;50.892;4.064;2024-02-21T10:09:24;10.60;99.90
13354;DHT22;6746;50.892;4.064;2024-02-21T10:12:08;10.70;99.90
13354;DHT22;6746;50.892;4.064;2024-02-21T10:14:46;10.60;99.90
13354;DHT22;6746;50.892;4.064;2024-02-21T10:17:34;10.60;99.90
13354;DHT22;6746;50.892;4.064;2024-02-21T10:20:12;10.60;99.90
13354;DHT22;6746;50.892;4.064;2024-02-21T10:23:00;10.60;99.90
13354;DHT22;6746;50.892;4.064;2024-02-21T10:25:28;10.50;99.90
13354;DHT22;6746;50.892;4.064;2024-02-21T10:28:07;10.40;99.90
13354;DHT22;6746;50.892;4.064;2024-02-21T10:30:49;10.40;99.90
13354;DHT22;6746;50.892;4.064;2024-02-21T10:33:17;10.40;99.90
13354;DHT22;6746;50.892;4.064;2024-02-21T10:36:05;10.50;99.90
13354;DHT22;6746;50.892;4.064;2024-02-21T10:38:40;10.50;99.90
13354;DHT22;6746;50.892;4.064;2024-02-21T10:41:08;10.50;99.90
13354;DHT22;6746;50.892;4.064;2024-02-21T10:43:50;10.60;99.90
13354;DHT22;6746;50.892;4.064;2024-02-21T10:46:19;10.60;99.90
13354;DHT22;6746;50.892;4.064;2024-02-21T10:48:47;10.60;99.90
13354;DHT22;6746;50.892;4.064;2024-02-21T10:51:26;10.70;99.90
13354;DHT22;6746;50.892;4.064;2024-02-21T10:56:54;10.70;99.90
13354;DHT22;6746;50.892;4.064;2024-02-21T10:59:33;10.80;99.90
13354;DHT22;6746;50.892;4.064;2024-02-21T11:02:01;10.80;99.90
13354;DHT22;6746;50.892;4.064;2024-02-21T11:04:30;10.80;99.90
13354;DHT22;6746;50.892;4.064;2024-02-21T11:07:02;10.80;99.90
13354;DHT22;6746;50.892;4.064;2024-02-21T11:09:30;10.80;99.90
13354;DHT22;6746;50.892;4.064;2024-02-21T11:12:10;10.80;99.90
13354;DHT22;6746;50.892;4.064;2024-02-21T11:14:39;10.90;99.90
13354;DHT22;6746;50.892;4.064;2024-02-21T11:17:17;10.90;99.90
13354;DHT22;6746;50.892;4.064;2024-02-21T11:20:10;10.90;99.90
13354;DHT22;6746;50.892;4.064;2024-02-21T11:22:27;10.90;99.90
13354;DHT22;6746;50.892;4.064;2024-02-21T11:25:05;10.90;99.90
13354;DHT22;6746;50.892;4.064;2024-02-21T11:27:34;10.90;99.90
13354;DHT22;6746;50.892;4.064;2024-02-21T11:30:13;10.90;99.90
13354;DHT22;6746;50.892;4.064;2024-02-21T11:32:46;10.90;99.90
13354;DHT22;6746;50.892;4.064;2024-02-21T11:35:21;11.00;99.90
13354;DHT22;6746;50.892;4.064;2024-02-21T11:38:12;11.00;99.90
13354;DHT22;6746;50.892;4.064;2024-02-21T11:40:46;11.00;99.90
13354;DHT22;6746;50.892;4.064;2024-02-21T11:43:15;11.00;99.90
13354;DHT22;6746;50.892;4.064;2024-02-21T11:45:59;11.00;99.90
13354;DHT22;6746;50.892;4.064;2024-02-21T11:48:37;10.90;99.90
13354;DHT22;6746;50.892;4.064;2024-02-21T11:51:24;10.90;99.90
13354;DHT22;6746;50.892;4.064;2024-02-21T11:53:54;10.90;99.90
13354;DHT22;6746;50.892;4.064;2024-02-21T11:56:23;10.80;99.90
13354;DHT22;6746;50.892;4.064;2024-02-21T11:58:55;10.80;99.90
13354;DHT22;6746;50.892;4.064;2024-02-21T12:01:24;10.80;99.90
13354;DHT22;6746;50.892;4.064;2024-02-21T12:04:02;10.80;99.90
13354;DHT22;6746;50.892;4.064;2024-02-21T12:06:41;10.80;99.90
13354;DHT22;6746;50.892;4.064;2024-02-21T12:09:09;10.80;99.90
13354;DHT22;6746;50.892;4.064;2024-02-21T12:11:37;10.80;99.90
13354;DHT22;6746;50.892;4.064;2024-02-21T12:14:16;10.80;99.90
13354;DHT22;6746;50.892;4.064;2024-02-21T12:16:47;10.80;99.90
13354;DHT22;6746;50.892;4.064;2024-02-21T12:19:16;10.80;99.90
13354;DHT22;6746;50.892;4.064;2024-02-21T12:21:55;10.80;99.90
13354;DHT22;6746;50.892;4.064;2024-02-21T12:24:24;10.80;99.90
13354;DHT22;6746;50.892;4.064;2024-02-21T12:26:52;10.80;99.90
13354;DHT22;6746;50.892;4.064;2024-02-21T12:29:24;10.90;99.90
13354;DHT22;6746;50.892;4.064;2024-02-21T12:31:53;11.00;99.90
13354;DHT22;6746;50.892;4.064;2024-02-21T12:34:25;11.10;99.90
13354;DHT22;6746;50.892;4.064;2024-02-21T12:36:54;11.20;99.90
13354;DHT22;6746;50.892;4.064;2024-02-21T12:39:32;11.30;99.90
13354;DHT22;6746;50.892;4.064;2024-02-21T12:42:04;11.30;99.90
13354;DHT22;6746;50.892;4.064;2024-02-21T12:44:33;11.20;99.90
13354;DHT22;6746;50.892;4.064;2024-02-21T12:47:11;11.20;99.90
13354;DHT22;6746;50.892;4.064;2024-02-21T12:49:40;11.20;99.90
13354;DHT22;6746;50.892;4.064;2024-02-21T12:52:11;11.20;99.90
13354;DHT22;6746;50.892;4.064;2024-02-21T12:54:50;11.30;99.90
13354;DHT22;6746;50.892;4.064;2024-02-21T12:57:28;11.30;99.90
13354;DHT22;6746;50.892;4.064;2024-02-21T13:00:06;11.30;99.90
13354;DHT22;6746;50.892;4.064;2024-02-21T13:02:35;11.40;99.90
13354;DHT22;6746;50.892;4.064;2024-02-21T13:05:04;11.40;99.90
13354;DHT22;6746;50.892;4.064;2024-02-21T13:07:33;11.40;99.90
13354;DHT22;6746;50.892;4.064;2024-02-21T13:10:02;11.50;99.90
13354;DHT22;6746;50.892;4.064;2024-02-21T13:12:40;11.50;99.90
13354;DHT22;6746;50.892;4.064;2024-02-21T13:15:09;11.50;99.90
13354;DHT22;6746;50.892;4.064;2024-02-21T13:17:38;11.40;99.90
13354;DHT22;6746;50.892;4.064;2024-02-21T13:20:12;11.40;99.90
13354;DHT22;6746;50.892;4.064;2024-02-21T13:22:40;11.40;99.90
13354;DHT22;6746;50.892;4.064;2024-02-21T13:25:17;11.30;99.90
13354;DHT22;6746;50.892;4.064;2024-02-21T13:27:45;11.30;99.90
13354;DHT22;6746;50.892;4.064;2024-02-21T13:30:23;11.30;99.90
13354;DHT22;6746;50.892;4.064;2024-02-21T13:32:52;11.30;99.90
13354;DHT22;6746;50.892;4.064;2024-02-21T13:35:20;11.30;99.90
13354;DHT22;6746;50.892;4.064;2024-02-21T13:37:59;11.20;99.90
13354;DHT22;6746;50.892;4.064;2024-02-21T13:40:37;11.10;99.90
13354;DHT22;6746;50.892;4.064;2024-02-21T13:43:25;11.00;99.90
13354;DHT22;6746;50.892;4.064;2024-02-21T13:45:59;10.90;99.90
13354;DHT22;6746;50.892;4.064;2024-02-21T13:48:27;10.90;99.90
13354;DHT22;6746;50.892;4.064;2024-02-21T13:51:04;10.90;99.90
13354;DHT22;6746;50.892;4.064;2024-02-21T13:53:32;10.80;99.90
13354;DHT22;6746;50.892;4.064;2024-02-21T13:56:01;10.80;99.90
13354;DHT22;6746;50.892;4.064;2024-02-21T13:58:30;10.80;99.90
13354;DHT22;6746;50.892;4.064;2024-02-21T14:01:09;10.80;99.90
13354;DHT22;6746;50.892;4.064;2024-02-21T14:03:55;10.80;99.90
13354;DHT22;6746;50.892;4.064;2024-02-21T14:06:33;10.80;99.90
13354;DHT22;6746;50.892;4.064;2024-02-21T14:09:21;10.70;99.90
13354;DHT22;6746;50.892;4.064;2024-02-21T14:11:59;10.80;99.90
13354;DHT22;6746;50.892;4.064;2024-02-21T14:14:37;10.70;99.90
13354;DHT22;6746;50.892;4.064;2024-02-21T14:17:06;10.70;99.90
13354;DHT22;6746;50.892;4.064;2024-02-21T14:19:34;10.60;99.90
13354;DHT22;6746;50.892;4.064;2024-02-21T14:22:13;10.60;99.90
13354;DHT22;6746;50.892;4.064;2024-02-21T14:24:44;10.60;99.90
13354;DHT22;6746;50.892;4.064;2024-02-21T14:27:13;10.60;99.90
13354;DHT22;6746;50.892;4.064;2024-02-21T14:29:42;10.50;99.90
13354;DHT22;6746;50.892;4.064;2024-02-21T14:32:11;10.50;99.90
13354;DHT22;6746;50.892;4.064;2024-02-21T14:34:50;10.50;99.90
13354;DHT22;6746;50.892;4.064;2024-02-21T14:37:24;10.40;99.90
13354;DHT22;6746;50.892;4.064;2024-02-21T14:39:52;10.40;99.90
13354;DHT22;6746;50.892;4.064;2024-02-21T14:42:21;10.40;99.90
13354;DHT22;6746;50.892;4.064;2024-02-21T14:44:50;10.30;99.90
13354;DHT22;6746;50.892;4.064;2024-02-21T14:47:19;10.30;99.90
13354;DHT22;6746;50.892;4.064;2024-02-21T14:49:48;10.30;99.90
13354;DHT22;6746;50.892;4.064;2024-02-21T14:52:20;10.30;99.90
13354;DHT22;6746;50.892;4.064;2024-02-21T14:54:49;10.30;99.90
13354;DHT22;6746;50.892;4.064;2024-02-21T14:57:21;10.30;99.90
13354;DHT22;6746;50.892;4.064;2024-02-21T14:59:49;10.20;99.90
13354;DHT22;6746;50.892;4.064;2024-02-21T15:02:28;10.20;99.90
13354;DHT22;6746;50.892;4.064;2024-02-21T15:05:04;10.20;99.90
13354;DHT22;6746;50.892;4.064;2024-02-21T15:10:17;10.20;99.90
13354;DHT22;6746;50.892;4.064;2024-02-21T15:12:49;10.10;99.90
13354;DHT22;6746;50.892;4.064;2024-02-21T15:15:17;10.10;99.90
13354;DHT22;6746;50.892;4.064;2024-02-21T15:17:46;10.10;99.90
13354;DHT22;6746;50.892;4.064;2024-02-21T15:20:25;10.10;99.90
13354;DHT22;6746;50.892;4.064;2024-02-21T15:22:53;10.10;99.90
13354;DHT22;6746;50.892;4.064;2024-02-21T15:25:22;10.00;99.90
13354;DHT22;6746;50.892;4.064;2024-02-21T15:27:51;10.00;99.90
13354;DHT22;6746;50.892;4.064;2024-02-21T15:30:20;10.00;99.90
13354;DHT22;6746;50.892;4.064;2024-02-21T15:32:54;10.00;99.90
13354;DHT22;6746;50.892;4.064;2024-02-21T15:35:23;10.00;99.90
13354;DHT22;6746;50.892;4.064;2024-02-21T15:37:55;10.00;99.90
13354;DHT22;6746;50.892;4.064;2024-02-21T15:40:24;13.00;99.90
13354;DHT22;6746;50.892;4.064;2024-02-21T15:42:58;10.00;99.90
13354;DHT22;6746;50.892;4.064;2024-02-21T15:45:29;10.00;99.90
13354;DHT22;6746;50.892;4.064;2024-02-21T15:48:08;9.90;99.90
13354;DHT22;6746;50.892;4.064;2024-02-21T15:50:37;9.90;99.90
13354;DHT22;6746;50.892;4.064;2024-02-21T15:53:06;9.90;99.90
13354;DHT22;6746;50.892;4.064;2024-02-21T15:55:35;9.90;99.90
13354;DHT22;6746;50.892;4.064;2024-02-21T15:58:04;9.90;99.90
13354;DHT22;6746;50.892;4.064;2024-02-21T16:00:35;9.90;99.90
13354;DHT22;6746;50.892;4.064;2024-02-21T16:03:14;9.90;99.90
13354;DHT22;6746;50.892;4.064;2024-02-21T16:05:52;9.90;99.90
13354;DHT22;6746;50.892;4.064;2024-02-21T16:08:28;10.00;99.90
13354;DHT22;6746;50.892;4.064;2024-02-21T16:10:59;9.90;99.90
13354;DHT22;6746;50.892;4.064;2024-02-21T16:13:31;9.90;99.90
13354;DHT22;6746;50.892;4.064;2024-02-21T16:16:00;9.90;99.90
13354;DHT22;6746;50.892;4.064;2024-02-21T16:18:29;9.90;99.90
13354;DHT22;6746;50.892;4.064;2024-02-21T16:20:58;9.90;99.90
13354;DHT22;6746;50.892;4.064;2024-02-21T16:23:27;9.90;99.90
13354;DHT22;6746;50.892;4.064;2024-02-21T16:25:56;9.90;99.90
13354;DHT22;6746;50.892;4.064;2024-02-21T16:28:25;9.90;99.90
13354;DHT22;6746;50.892;4.064;2024-02-21T16:30:54;9.90;99.90
13354;DHT22;6746;50.892;4.064;2024-02-21T16:33:23;9.90;99.90
13354;DHT22;6746;50.892;4.064;2024-02-21T16:35:52;9.90;99.90
13354;DHT22;6746;50.892;4.064;2024-02-21T16:38:29;9.90;99.90
13354;DHT22;6746;50.892;4.064;2024-02-21T16:40:58;9.90;99.90
13354;DHT22;6746;50.892;4.064;2024-02-21T16:43:37;9.90;99.90
13354;DHT22;6746;50.892;4.064;2024-02-21T16:46:05;9.90;99.90
13354;DHT22;6746;50.892;4.064;2024-02-21T16:48:39;10.00;99.90
13354;DHT22;6746;50.892;4.064;2024-02-21T16:51:09;9.90;99.90
13354;DHT22;6746;50.892;4.064;2024-02-21T16:53:40;9.90;99.90
13354;DHT22;6746;50.892;4.064;2024-02-21T16:56:09;9.90;99.90
13354;DHT22;6746;50.892;4.064;2024-02-21T16:58:48;9.90;99.90
13354;DHT22;6746;50.892;4.064;2024-02-21T17:01:26;9.90;99.90